createdAt,value
2023-04-19T00:00:10.452Z,10.6
2023-04-19T00:06:00.180Z,10.8
2023-04-19T00:11:00.200Z,10.7
2023-04-19T00:16:10.539Z,10.6
2023-04-19T00:22:00.197Z,10.7
2023-04-19T00:27:10.452Z,10.7
2023-04-19T00:32:10.452Z,10.9
2023-04-19T00:38:00.187Z,10.8
2023-04-19T00:43:00.230Z,10.7
2023-04-19T00:48:10.516Z,10.8
2023-04-19T00:53:10.468Z,11
2023-04-19T00:58:10.486Z,10.9
2023-04-19T01:04:00.364Z,11
2023-04-19T01:09:00.294Z,10.9
2023-04-19T01:14:10.469Z,10.7
2023-04-19T01:19:10.476Z,10.7
2023-04-19T01:25:00.185Z,10.5
2023-04-19T01:30:00.219Z,10.4
2023-04-19T01:35:10.511Z,10.4
2023-04-19T01:41:00.216Z,10.4
2023-04-19T01:46:00.205Z,10.3
2023-04-19T01:51:10.456Z,10.2
2023-04-19T01:57:00.208Z,10.1
2023-04-19T02:02:00.305Z,10.3
2023-04-19T02:07:10.455Z,10.4
2023-04-19T02:12:10.526Z,10.3
2023-04-19T02:18:00.370Z,10.3
2023-04-19T02:23:00.211Z,10.3
2023-04-19T02:29:00.192Z,10.3
2023-04-19T02:34:00.206Z,10.2
2023-04-19T02:39:10.451Z,10.2
2023-04-19T02:44:10.467Z,10.3
2023-04-19T02:50:00.221Z,10.4
2023-04-19T02:55:10.452Z,10.4
2023-04-19T03:00:10.478Z,10.5
2023-04-19T03:05:10.473Z,10.5
2023-04-19T03:11:00.205Z,10.5
2023-04-19T03:16:10.536Z,10.5
2023-04-19T03:21:10.466Z,10.4
2023-04-19T03:27:00.204Z,10.3
2023-04-19T03:32:10.435Z,10.3
2023-04-19T03:37:10.448Z,10.3
2023-04-19T03:42:10.466Z,10.3
2023-04-19T03:47:10.458Z,10.4
2023-04-19T03:53:00.208Z,10.5
2023-04-19T03:58:00.238Z,10.5
2023-04-19T04:03:10.631Z,10.5
2023-04-19T04:08:10.458Z,10.4
2023-04-19T04:13:10.454Z,10.4
2023-04-19T04:19:00.200Z,10.3
2023-04-19T04:30:00.209Z,10.2
2023-04-19T04:35:00.182Z,10.2
2023-04-19T04:40:00.204Z,10.3
2023-04-19T04:45:00.212Z,10.2
2023-04-19T04:50:10.494Z,10.3
2023-04-19T04:55:10.492Z,10.2
2023-04-19T05:01:00.240Z,10.2
2023-04-19T05:06:00.205Z,10.2
2023-04-19T05:11:10.465Z,10.5
2023-04-19T05:16:10.496Z,10.4
2023-04-19T05:22:00.262Z,10.3
2023-04-19T05:27:10.468Z,10.4
2023-04-19T05:32:10.500Z,10.4
2023-04-19T05:38:00.207Z,10.5
2023-04-19T05:43:00.253Z,10.5
2023-04-19T05:48:10.534Z,10.6
2023-04-19T05:53:10.492Z,10.5
2023-04-19T05:58:10.485Z,10.4
2023-04-19T06:04:00.497Z,10.4
2023-04-19T06:09:10.476Z,10.4
2023-04-19T06:14:10.488Z,10.4
2023-04-19T06:20:00.229Z,10.5
2023-04-19T06:25:10.481Z,10.5
2023-04-19T06:31:00.217Z,10.6
2023-04-19T06:42:00.238Z,10.9
2023-04-19T06:47:00.235Z,11
2023-04-19T06:52:00.261Z,11
2023-04-19T06:57:10.487Z,10.7
2023-04-19T07:02:10.564Z,10.8
2023-04-19T07:08:00.228Z,10.9
2023-04-19T07:13:10.494Z,11.1
2023-04-19T07:19:00.260Z,11.1
2023-04-19T07:24:10.484Z,11.2
2023-04-19T07:29:10.480Z,11.8
2023-04-19T07:35:00.210Z,11.7
2023-04-19T07:40:00.259Z,11.7
2023-04-19T07:45:10.486Z,10.8
2023-04-19T07:51:00.205Z,10
2023-04-19T07:56:12.738Z,10.1
2023-04-19T08:02:00.472Z,9.7
2023-04-19T08:07:00.215Z,10.4
2023-04-19T08:12:00.216Z,9.7
2023-04-19T08:22:10.495Z,9.8
2023-04-19T08:28:00.236Z,9.4
2023-04-19T08:33:00.364Z,8.9
2023-04-19T08:38:00.907Z,8.8
2023-04-19T08:43:10.522Z,9.1
2023-04-19T08:49:00.216Z,8
2023-04-19T08:54:10.532Z,7.9
2023-04-19T09:00:00.237Z,8
2023-04-19T09:05:00.391Z,7.9
2023-04-19T09:10:10.512Z,7.7
2023-04-19T09:15:10.536Z,7.9
2023-04-19T09:21:00.260Z,7.5
2023-04-19T09:26:22.126Z,7.1
2023-04-19T09:36:10.903Z,7.6
2023-04-19T09:42:00.253Z,7.5
2023-04-19T09:47:10.524Z,7.3
2023-04-19T09:52:10.534Z,7
2023-04-19T09:58:00.241Z,7.5
2023-04-19T10:03:00.371Z,7.8
2023-04-19T10:08:10.630Z,7.7
2023-04-19T10:13:19.082Z,8.2
2023-04-19T10:18:10.591Z,7.1
2023-04-19T10:24:00.241Z,7.5
2023-04-19T10:29:00.257Z,7.8
2023-04-19T10:34:00.265Z,7.3
2023-04-19T10:39:00.258Z,6.8
2023-04-19T10:44:10.591Z,7.7
2023-04-19T10:49:10.538Z,6.4
2023-04-19T10:54:10.551Z,6.9
2023-04-19T10:59:10.617Z,6.8
2023-04-19T11:05:00.292Z,6.5
2023-04-19T11:10:10.556Z,6.5
2023-04-19T11:15:10.590Z,6.3
2023-04-19T11:21:00.262Z,6.9
2023-04-19T11:26:10.543Z,6.6
2023-04-19T11:32:00.281Z,6.9
2023-04-19T11:37:00.268Z,6.3
2023-04-19T11:42:10.554Z,6.7
2023-04-19T11:48:00.443Z,6.7
2023-04-19T11:53:10.562Z,6.5
2023-04-19T11:59:00.285Z,6.7
2023-04-19T12:04:00.491Z,6.1
2023-04-19T12:09:00.343Z,5.9
2023-04-19T12:14:10.586Z,6.1
2023-04-19T12:19:10.572Z,5.7
2023-04-19T12:24:10.561Z,5.5
2023-04-19T12:29:10.574Z,5.8
2023-04-19T12:34:10.574Z,5.8
2023-04-19T12:40:00.317Z,6
2023-04-19T12:45:10.566Z,5.4
2023-04-19T12:50:10.552Z,5.3
2023-04-19T12:55:10.552Z,4.8
2023-04-19T13:01:00.479Z,5.6
2023-04-19T13:06:00.272Z,5.1
2023-04-19T13:11:10.552Z,5.1
2023-04-19T13:16:20.903Z,5
2023-04-19T13:22:00.279Z,5
2023-04-19T13:27:00.322Z,4.5
2023-04-19T13:32:10.582Z,4.5
2023-04-19T13:38:00.304Z,4.5
2023-04-19T13:43:10.589Z,4.8
2023-04-19T13:49:00.283Z,4.7
2023-04-19T13:54:00.291Z,4.5
2023-04-19T13:59:00.310Z,5
2023-04-19T14:04:10.907Z,4.9
2023-04-19T14:09:10.575Z,4.9
2023-04-19T14:15:00.296Z,4.7
2023-04-19T14:20:10.566Z,4.7
2023-04-19T14:25:10.584Z,4.8
2023-04-19T14:36:00.322Z,4.6
2023-04-19T14:41:10.575Z,4.8
2023-04-19T14:46:10.627Z,4.2
2023-04-19T14:52:00.307Z,4.3
2023-04-19T14:57:10.609Z,4.4
2023-04-19T15:03:00.496Z,4.1
2023-04-19T15:08:00.295Z,4.4
2023-04-19T15:13:00.309Z,4.6
2023-04-19T15:18:10.627Z,4.5
2023-04-19T15:23:10.607Z,4.7
2023-04-19T15:28:10.649Z,4.8
2023-04-19T15:34:00.323Z,4.7
2023-04-19T15:39:10.596Z,4.4
2023-04-19T15:45:00.346Z,4.6
2023-04-19T15:50:00.372Z,4.5
2023-04-19T15:55:10.590Z,4.6
2023-04-19T16:01:00.323Z,4.6
2023-04-19T16:06:00.399Z,4.5
2023-04-19T16:11:10.616Z,4.4
2023-04-19T16:16:10.705Z,4.4
2023-04-19T16:22:00.304Z,4.4
2023-04-19T16:27:10.583Z,4.6
2023-04-19T16:32:10.678Z,4.5
2023-04-19T16:38:00.329Z,4.4
2023-04-19T16:43:10.596Z,4.2
2023-04-19T16:49:00.295Z,4.4
2023-04-19T16:54:00.321Z,4.2
2023-04-19T16:59:10.604Z,4
2023-04-19T17:05:00.572Z,4.3
2023-04-19T17:10:10.605Z,4.4
2023-04-19T17:16:00.381Z,4.3
2023-04-19T17:21:10.642Z,4.5
2023-04-19T17:27:00.333Z,4.1
2023-04-19T17:32:00.340Z,4.3
2023-04-19T17:37:10.613Z,4.4
2023-04-19T17:43:00.323Z,4.2
2023-04-19T17:48:00.391Z,4.3
2023-04-19T17:53:10.594Z,4.3
2023-04-19T17:58:10.607Z,4.2
2023-04-19T18:04:00.546Z,4.2
2023-04-19T18:09:00.340Z,4.2
2023-04-19T18:14:00.347Z,4.1
2023-04-19T18:19:10.597Z,4.2
2023-04-19T18:24:10.601Z,4.3
2023-04-19T18:29:10.620Z,4.3
2023-04-19T18:34:12.268Z,4.3
2023-04-19T18:39:10.620Z,4.2
2023-04-19T18:45:00.318Z,4.3
2023-04-19T18:50:05.041Z,4.2
2023-04-19T18:55:10.613Z,4.1
2023-04-19T19:00:10.609Z,4.3
2023-04-19T19:05:13.439Z,4.2
2023-04-19T19:16:10.628Z,4.1
2023-04-19T19:22:00.335Z,4.3
2023-04-19T19:27:02.469Z,4.4
2023-04-19T19:32:10.633Z,4.4
2023-04-19T19:38:00.341Z,4.2
2023-04-19T19:43:10.637Z,4.3
2023-04-19T19:49:00.436Z,4.3
2023-04-19T19:54:00.372Z,4.5
2023-04-19T19:59:11.382Z,4.4
2023-04-19T20:05:00.583Z,4.4
2023-04-19T20:10:10.665Z,4.6
2023-04-19T20:16:00.569Z,4.5
2023-04-19T20:21:00.335Z,4.6
2023-04-19T20:26:00.337Z,4.6
2023-04-19T20:31:10.624Z,4.5
2023-04-19T20:36:10.617Z,4.6
2023-04-19T20:42:00.348Z,4.5
2023-04-19T20:47:00.338Z,4.7
2023-04-19T20:52:10.604Z,4.8
2023-04-19T20:57:10.611Z,4.7
2023-04-19T21:03:00.410Z,4.6
2023-04-19T21:08:00.329Z,4.7
2023-04-19T21:13:10.641Z,4.8
2023-04-19T21:19:00.360Z,5
2023-04-19T21:24:10.613Z,5
2023-04-19T21:30:00.338Z,4.8
2023-04-19T21:35:00.346Z,5
2023-04-19T21:40:10.625Z,5.1
2023-04-19T21:51:10.617Z,5.2
2023-04-19T22:02:00.429Z,5
2023-04-19T22:07:10.618Z,5.3
2023-04-19T22:12:10.631Z,5.4
2023-04-19T22:18:00.400Z,5.4
2023-04-19T22:23:00.646Z,5.4
2023-04-19T22:28:10.625Z,5.4
2023-04-19T22:34:00.355Z,5.5
2023-04-19T22:39:10.612Z,5.6
2023-04-19T22:45:00.403Z,5.5
2023-04-19T22:50:10.639Z,5.5
2023-04-19T22:56:00.364Z,5.4
2023-04-19T23:01:10.647Z,5.3
2023-04-19T23:06:10.622Z,5.1
2023-04-19T23:12:00.346Z,5.2
2023-04-19T23:17:00.363Z,5.3
2023-04-19T23:22:10.608Z,5.2
2023-04-19T23:28:00.340Z,5.1
2023-04-19T23:33:10.631Z,5.3
2023-04-19T23:39:00.418Z,5
2023-04-19T23:44:10.610Z,4.8
2023-04-19T23:49:10.621Z,5
2023-04-19T23:55:00.336Z,5.1
